Ardoch, North Dakota
Current Conditions -  °F | °C
As of 7:55 PM on Monday 20 Oct 2014 (Local Time) from KGAF Reporting Station
Clear Clear  
Wind Chill: 42°   Ceiling: Unl
Heat Index: 46°   Visibility: 9mi
Dew Point: 37°   Wind: 8mph
Humidity: 71%   Direction: 110°ESE
Pressure: 30.03"   Gusts: NA
Location:  48.21°N, 97.34°W
Report Text: KGAF 210055Z AUTO 11007KT 9SM CLR 08/03 A3003 RMK AO2
Loading
Personal Weather Stations






























Interactive Weather Map
Tropical Storm Tracking
New forecast layout! Learn more

10-Day Weather Forecast

Advertisements
Track Severe Weather on mobile